sensor_id;sensor_type;location;lat;lon;timestamp;pressure;altitude;pressure_sealevel;temperature;humidity
69221;BME280;56331;51.992;20.910;2023-03-04T00:00:00;99901.48;;;21.70;30.96
69221;BME280;56331;51.992;20.910;2023-03-04T00:02:27;99902.50;;;21.71;30.93
69221;BME280;56331;51.992;20.910;2023-03-04T00:04:53;99897.55;;;21.71;30.98
69221;BME280;56331;51.992;20.910;2023-03-04T00:07:20;99886.45;;;21.71;30.91
69221;BME280;56331;51.992;20.910;2023-03-04T00:09:46;99885.65;;;21.70;30.93
69221;BME280;56331;51.992;20.910;2023-03-04T00:12:13;99884.27;;;21.70;30.94
69221;BME280;56331;51.992;20.910;2023-03-04T00:14:39;99879.52;;;21.71;30.94
69221;BME280;56331;51.992;20.910;2023-03-04T00:17:09;99876.75;;;21.71;30.96
69221;BME280;56331;51.992;20.910;2023-03-04T00:19:35;99878.72;;;21.70;30.96
69221;BME280;56331;51.992;20.910;2023-03-04T00:22:03;99875.73;;;21.69;31.03
69221;BME280;56331;51.992;20.910;2023-03-04T00:24:30;99871.58;;;21.69;31.03
69221;BME280;56331;51.992;20.910;2023-03-04T00:26:56;99871.58;;;21.69;31.03
69221;BME280;56331;51.992;20.910;2023-03-04T00:29:23;99872.13;;;21.69;31.01
69221;BME280;56331;51.992;20.910;2023-03-04T00:31:54;99867.97;;;21.69;30.99
69221;BME280;56331;51.992;20.910;2023-03-04T00:34:21;99865.20;;;21.69;31.01
69221;BME280;56331;51.992;20.910;2023-03-04T00:36:47;99871.33;;;21.68;31.00
69221;BME280;56331;51.992;20.910;2023-03-04T00:39:14;99856.08;;;21.68;31.01
69221;BME280;56331;51.992;20.910;2023-03-04T00:41:43;99861.63;;;21.68;31.00
69221;BME280;56331;51.992;20.910;2023-03-04T00:44:10;99857.47;;;21.68;31.01
69221;BME280;56331;51.992;20.910;2023-03-04T00:46:36;99861.63;;;21.68;31.01
69221;BME280;56331;51.992;20.910;2023-03-04T00:49:03;99859.44;;;21.68;30.99
69221;BME280;56331;51.992;20.910;2023-03-04T00:51:29;99854.48;;;21.67;31.08
69221;BME280;56331;51.992;20.910;2023-03-04T00:53:58;99851.70;;;21.67;31.04
69221;BME280;56331;51.992;20.910;2023-03-04T00:56:24;99847.55;;;21.67;31.04
69221;BME280;56331;51.992;20.910;2023-03-04T00:58:50;99839.23;;;21.67;31.10
69221;BME280;56331;51.992;20.910;2023-03-04T01:01:17;99832.30;;;21.67;31.03
69221;BME280;56331;51.992;20.910;2023-03-04T01:03:43;99822.02;;;21.68;31.00
69221;BME280;56331;51.992;20.910;2023-03-04T01:06:09;99820.63;;;21.68;30.94
69221;BME280;56331;51.992;20.910;2023-03-04T01:08:36;99828.14;;;21.67;30.99
69221;BME280;56331;51.992;20.910;2023-03-04T01:11:02;99825.71;;;21.66;30.95
69221;BME280;56331;51.992;20.910;2023-03-04T01:13:29;99811.05;;;21.65;30.98
69221;BME280;56331;51.992;20.910;2023-03-04T01:15:57;99809.08;;;21.66;30.96
69221;BME280;56331;51.992;20.910;2023-03-04T01:18:24;99804.34;;;21.66;30.98
69221;BME280;56331;51.992;20.910;2023-03-04T01:20:50;99806.09;;;21.65;30.91
69221;BME280;56331;51.992;20.910;2023-03-04T01:23:17;99799.38;;;21.66;30.90
69221;BME280;56331;51.992;20.910;2023-03-04T01:25:43;99793.62;;;21.65;30.94
69221;BME280;56331;51.992;20.910;2023-03-04T01:28:10;99790.60;;;21.63;30.95
69221;BME280;56331;51.992;20.910;2023-03-04T01:30:36;99793.38;;;21.63;30.94
69221;BME280;56331;51.992;20.910;2023-03-04T01:33:03;99788.66;;;21.64;30.91
69221;BME280;56331;51.992;20.910;2023-03-04T01:35:29;99790.60;;;21.63;30.90
69221;BME280;56331;51.992;20.910;2023-03-04T01:37:56;99787.03;;;21.63;30.90
69221;BME280;56331;51.992;20.910;2023-03-04T01:40:22;99789.22;;;21.63;30.92
69221;BME280;56331;51.992;20.910;2023-03-04T01:42:49;99776.73;;;21.63;30.89
69221;BME280;56331;51.992;20.910;2023-03-04T01:45:17;99785.64;;;21.63;30.89
69221;BME280;56331;51.992;20.910;2023-03-04T01:47:48;99773.17;;;21.63;30.94
69221;BME280;56331;51.992;20.910;2023-03-04T01:52:45;99763.47;;;21.63;30.89
69221;BME280;56331;51.992;20.910;2023-03-04T01:55:16;99757.47;;;21.61;30.89
69221;BME280;56331;51.992;20.910;2023-03-04T01:57:45;99756.08;;;21.61;30.88
69221;BME280;56331;51.992;20.910;2023-03-04T02:02:51;99718.66;;;21.61;30.93
69221;BME280;56331;51.992;20.910;2023-03-04T02:05:20;99695.10;;;21.61;30.93
69221;BME280;56331;51.992;20.910;2023-03-04T02:07:48;99678.26;;;21.60;30.89
69221;BME280;56331;51.992;20.910;2023-03-04T02:10:15;99689.56;;;21.61;30.89
69221;BME280;56331;51.992;20.910;2023-03-04T02:12:43;99676.28;;;21.60;30.91
69221;BME280;56331;51.992;20.910;2023-03-04T02:15:10;99668.55;;;21.60;30.91
69221;BME280;56331;51.992;20.910;2023-03-04T02:17:37;99667.38;;;21.61;30.84
69221;BME280;56331;51.992;20.910;2023-03-04T02:20:15;99661.05;;;21.60;30.92
69221;BME280;56331;51.992;20.910;2023-03-04T02:22:53;99664.40;;;21.60;30.89
69221;BME280;56331;51.992;20.910;2023-03-04T02:25:20;99658.05;;;21.59;30.86
69221;BME280;56331;51.992;20.910;2023-03-04T02:27:45;99653.10;;;21.59;30.86
69221;BME280;56331;51.992;20.910;2023-03-04T02:30:12;99654.24;;;21.58;30.87
69221;BME280;56331;51.992;20.910;2023-03-04T02:32:39;99638.20;;;21.57;30.86
69221;BME280;56331;51.992;20.910;2023-03-04T02:35:12;99634.84;;;21.58;30.86
69221;BME280;56331;51.992;20.910;2023-03-04T02:37:36;99626.31;;;21.57;30.84
69221;BME280;56331;51.992;20.910;2023-03-04T02:40:04;99628.28;;;21.56;30.84
69221;BME280;56331;51.992;20.910;2023-03-04T02:42:31;99609.69;;;21.57;30.86
69221;BME280;56331;51.992;20.910;2023-03-04T02:48:02;99613.59;;;21.56;30.84
69221;BME280;56331;51.992;20.910;2023-03-04T02:50:31;99605.28;;;21.56;30.78
69221;BME280;56331;51.992;20.910;2023-03-04T02:52:58;99605.08;;;21.55;30.82
69221;BME280;56331;51.992;20.910;2023-03-04T02:55:26;99609.23;;;21.55;30.79
69221;BME280;56331;51.992;20.910;2023-03-04T02:57:53;99618.34;;;21.55;30.84
69221;BME280;56331;51.992;20.910;2023-03-04T03:00:20;99617.55;;;21.55;30.82
69221;BME280;56331;51.992;20.910;2023-03-04T03:02:46;99616.95;;;21.55;30.84
69221;BME280;56331;51.992;20.910;2023-03-04T03:05:13;99615.81;;;21.56;30.66
69221;BME280;56331;51.992;20.910;2023-03-04T03:07:40;99616.23;;;21.58;30.58
69221;BME280;56331;51.992;20.910;2023-03-04T03:10:07;99618.21;;;21.58;30.44
69221;BME280;56331;51.992;20.910;2023-03-04T03:12:33;99615.89;;;21.60;30.36
69221;BME280;56331;51.992;20.910;2023-03-04T03:15:00;99612.54;;;21.60;30.21
69221;BME280;56331;51.992;20.910;2023-03-04T03:17:27;99615.89;;;21.60;30.12
69221;BME280;56331;51.992;20.910;2023-03-04T03:19:53;99622.83;;;21.60;30.04
69221;BME280;56331;51.992;20.910;2023-03-04T03:22:19;99615.55;;;21.61;29.98
69221;BME280;56331;51.992;20.910;2023-03-04T03:24:46;99609.18;;;21.61;29.88
69221;BME280;56331;51.992;20.910;2023-03-04T03:27:12;99610.22;;;21.62;29.79
69221;BME280;56331;51.992;20.910;2023-03-04T03:29:39;99618.88;;;21.61;29.74
69221;BME280;56331;51.992;20.910;2023-03-04T03:32:05;99615.77;;;21.62;29.67
69221;BME280;56331;51.992;20.910;2023-03-04T03:34:31;99616.35;;;21.62;29.61
69221;BME280;56331;51.992;20.910;2023-03-04T03:36:58;99620.27;;;21.61;29.55
69221;BME280;56331;51.992;20.910;2023-03-04T03:39:24;99619.92;;;21.62;29.53
69221;BME280;56331;51.992;20.910;2023-03-04T03:41:51;99606.06;;;21.62;29.47
69221;BME280;56331;51.992;20.910;2023-03-04T03:44:17;99609.42;;;21.62;29.38
69221;BME280;56331;51.992;20.910;2023-03-04T03:46:43;99609.42;;;21.62;29.37
69221;BME280;56331;51.992;20.910;2023-03-04T03:49:10;99605.27;;;21.62;29.28
69221;BME280;56331;51.992;20.910;2023-03-04T03:51:36;99595.77;;;21.63;29.25
69221;BME280;56331;51.992;20.910;2023-03-04T03:54:03;99596.36;;;21.62;29.17
69221;BME280;56331;51.992;20.910;2023-03-04T03:56:29;99595.77;;;21.63;29.17
69221;BME280;56331;51.992;20.910;2023-03-04T03:58:55;99588.64;;;21.62;29.07
69221;BME280;56331;51.992;20.910;2023-03-04T04:01:25;99593.00;;;21.63;29.01
69221;BME280;56331;51.992;20.910;2023-03-04T04:03:52;99593.94;;;21.61;29.08
69221;BME280;56331;51.992;20.910;2023-03-04T04:06:18;99593.94;;;21.61;29.29
69221;BME280;56331;51.992;20.910;2023-03-04T04:08:45;99584.61;;;21.59;29.34
69221;BME280;56331;51.992;20.910;2023-03-04T04:11:14;99586.34;;;21.58;29.30
69221;BME280;56331;51.992;20.910;2023-03-04T04:13:40;99584.50;;;21.56;29.33
69221;BME280;56331;51.992;20.910;2023-03-04T04:16:10;99587.27;;;21.56;29.31
69221;BME280;56331;51.992;20.910;2023-03-04T04:18:37;99588.23;;;21.54;29.41
69221;BME280;56331;51.992;20.910;2023-03-04T04:21:05;99587.41;;;21.53;29.41
69221;BME280;56331;51.992;20.910;2023-03-04T04:23:31;99586.02;;;21.53;29.41
69221;BME280;56331;51.992;20.910;2023-03-04T04:25:58;99589.37;;;21.53;29.44
69221;BME280;56331;51.992;20.910;2023-03-04T04:28:25;99589.16;;;21.52;29.47
69221;BME280;56331;51.992;20.910;2023-03-04T04:30:51;99585.80;;;21.52;29.49
69221;BME280;56331;51.992;20.910;2023-03-04T04:33:18;99582.58;;;21.50;29.52
69221;BME280;56331;51.992;20.910;2023-03-04T04:36:13;99594.50;;;21.51;29.57
69221;BME280;56331;51.992;20.910;2023-03-04T04:38:41;99589.51;;;21.50;29.55
69221;BME280;56331;51.992;20.910;2023-03-04T04:41:20;99594.50;;;21.51;29.56
69221;BME280;56331;51.992;20.910;2023-03-04T04:43:46;99582.02;;;21.51;29.57
69221;BME280;56331;51.992;20.910;2023-03-04T04:46:14;99579.02;;;21.50;29.58
69221;BME280;56331;51.992;20.910;2023-03-04T04:48:40;99586.18;;;21.51;29.62
69221;BME280;56331;51.992;20.910;2023-03-04T04:51:10;99589.51;;;21.50;29.68
69221;BME280;56331;51.992;20.910;2023-03-04T04:53:37;99580.64;;;21.51;29.68
69221;BME280;56331;51.992;20.910;2023-03-04T04:56:15;99585.01;;;21.52;29.69
69221;BME280;56331;51.992;20.910;2023-03-04T04:58:42;99573.71;;;21.51;29.70
69221;BME280;56331;51.992;20.910;2023-03-04T05:01:09;99572.53;;;21.52;29.64
69221;BME280;56331;51.992;20.910;2023-03-04T05:03:38;99571.50;;;21.50;29.74
69221;BME280;56331;51.992;20.910;2023-03-04T05:06:07;99576.48;;;21.51;29.76
69221;BME280;56331;51.992;20.910;2023-03-04T05:08:35;99564.56;;;21.50;29.76
69221;BME280;56331;51.992;20.910;2023-03-04T05:11:02;99571.28;;;21.49;29.75
69221;BME280;56331;51.992;20.910;2023-03-04T05:13:32;99562.62;;;21.51;29.76
69221;BME280;56331;51.992;20.910;2023-03-04T05:15:57;99561.45;;;21.52;29.77
69221;BME280;56331;51.992;20.910;2023-03-04T05:18:25;99565.95;;;21.50;29.83
69221;BME280;56331;51.992;20.910;2023-03-04T05:20:54;99562.62;;;21.51;29.84
69221;BME280;56331;51.992;20.910;2023-03-04T05:23:21;99558.09;;;21.52;29.88
69221;BME280;56331;51.992;20.910;2023-03-04T05:25:49;99553.48;;;21.50;29.89
69221;BME280;56331;51.992;20.910;2023-03-04T05:28:29;99556.25;;;21.50;30.02
69221;BME280;56331;51.992;20.910;2023-03-04T05:30:56;99559.86;;;21.51;30.20
69221;BME280;56331;51.992;20.910;2023-03-04T05:33:22;99563.77;;;21.50;30.23
69221;BME280;56331;51.992;20.910;2023-03-04T05:35:57;99567.92;;;21.50;30.37
69221;BME280;56331;51.992;20.910;2023-03-04T05:38:24;99550.42;;;21.46;30.43
69221;BME280;56331;51.992;20.910;2023-03-04T05:41:04;99559.98;;;21.48;30.55
69221;BME280;56331;51.992;20.910;2023-03-04T05:43:34;99555.25;;;21.49;30.81
69221;BME280;56331;51.992;20.910;2023-03-04T05:46:02;99562.17;;;21.49;31.22
69221;BME280;56331;51.992;20.910;2023-03-04T05:48:29;99562.17;;;21.49;31.23
69221;BME280;56331;51.992;20.910;2023-03-04T05:50:57;99553.06;;;21.48;31.35
69221;BME280;56331;51.992;20.910;2023-03-04T05:53:24;99554.45;;;21.48;31.42
69221;BME280;56331;51.992;20.910;2023-03-04T05:55:51;99562.77;;;21.48;31.48
69221;BME280;56331;51.992;20.910;2023-03-04T05:58:20;99569.90;;;21.49;31.63
69221;BME280;56331;51.992;20.910;2023-03-04T06:00:47;99567.13;;;21.49;31.84
69221;BME280;56331;51.992;20.910;2023-03-04T06:03:20;99559.41;;;21.49;31.87
69221;BME280;56331;51.992;20.910;2023-03-04T06:05:43;99552.69;;;21.50;31.75
69221;BME280;56331;51.992;20.910;2023-03-04T06:08:12;99553.27;;;21.49;31.69
69221;BME280;56331;51.992;20.910;2023-03-04T06:10:40;99547.73;;;21.49;31.66
69221;BME280;56331;51.992;20.910;2023-03-04T06:13:07;99541.02;;;21.50;31.61
69221;BME280;56331;51.992;20.910;2023-03-04T06:15:34;99541.60;;;21.50;31.57
69221;BME280;56331;51.992;20.910;2023-03-04T06:18:03;99540.45;;;21.51;31.50
69221;BME280;56331;51.992;20.910;2023-03-04T06:20:29;99533.16;;;21.52;31.51
69221;BME280;56331;51.992;20.910;2023-03-04T06:22:55;99530.76;;;21.51;31.48
69221;BME280;56331;51.992;20.910;2023-03-04T06:25:23;99538.34;;;21.54;31.44
69221;BME280;56331;51.992;20.910;2023-03-04T06:27:49;99528.20;;;21.52;31.34
69221;BME280;56331;51.992;20.910;2023-03-04T06:30:17;99528.20;;;21.52;31.29
69221;BME280;56331;51.992;20.910;2023-03-04T06:32:45;99523.45;;;21.52;31.23
69221;BME280;56331;51.992;20.910;2023-03-04T06:35:15;99521.48;;;21.53;31.21
69221;BME280;56331;51.992;20.910;2023-03-04T06:37:41;99522.28;;;21.53;31.15
69221;BME280;56331;51.992;20.910;2023-03-04T06:40:12;99522.87;;;21.53;31.14
69221;BME280;56331;51.992;20.910;2023-03-04T06:42:40;99521.48;;;21.53;31.05
69221;BME280;56331;51.992;20.910;2023-03-04T06:45:08;99521.72;;;21.54;30.99
69221;BME280;56331;51.992;20.910;2023-03-04T06:47:34;99527.61;;;21.52;30.98
69221;BME280;56331;51.992;20.910;2023-03-04T06:50:01;99523.83;;;21.51;30.94
69221;BME280;56331;51.992;20.910;2023-03-04T06:52:50;99521.48;;;21.53;30.96
69221;BME280;56331;51.992;20.910;2023-03-04T06:55:09;99523.45;;;21.52;30.94
69221;BME280;56331;51.992;20.910;2023-03-04T06:57:38;99520.09;;;21.53;30.87
69221;BME280;56331;51.992;20.910;2023-03-04T07:00:09;99523.66;;;21.53;30.83
69221;BME280;56331;51.992;20.910;2023-03-04T07:02:39;99524.25;;;21.53;30.77
69221;BME280;56331;51.992;20.910;2023-03-04T07:05:11;99529.20;;;21.53;30.69
69221;BME280;56331;51.992;20.910;2023-03-04T07:07:38;99527.02;;;21.53;30.60
69221;BME280;56331;51.992;20.910;2023-03-04T07:10:11;99525.05;;;21.53;30.56
69221;BME280;56331;51.992;20.910;2023-03-04T07:12:36;99531.98;;;21.53;30.54
69221;BME280;56331;51.992;20.910;2023-03-04T07:15:04;99532.56;;;21.53;30.49
69221;BME280;56331;51.992;20.910;2023-03-04T07:17:31;99539.49;;;21.53;30.53
69221;BME280;56331;51.992;20.910;2023-03-04T07:20:01;99533.95;;;21.53;30.56
69221;BME280;56331;51.992;20.910;2023-03-04T07:22:32;99527.83;;;21.53;30.53
69221;BME280;56331;51.992;20.910;2023-03-04T07:25:03;99526.44;;;21.53;30.46
69221;BME280;56331;51.992;20.910;2023-03-04T07:27:39;99516.73;;;21.53;30.46
69221;BME280;56331;51.992;20.910;2023-03-04T07:30:08;99523.66;;;21.53;30.43
69221;BME280;56331;51.992;20.910;2023-03-04T07:32:34;99527.83;;;21.53;30.41
69221;BME280;56331;51.992;20.910;2023-03-04T07:35:06;99529.20;;;21.53;30.43
69221;BME280;56331;51.992;20.910;2023-03-04T07:37:32;99524.25;;;21.53;30.39
69221;BME280;56331;51.992;20.910;2023-03-04T07:39:59;99519.88;;;21.52;30.34
69221;BME280;56331;51.992;20.910;2023-03-04T07:42:25;99515.14;;;21.52;30.34
69221;BME280;56331;51.992;20.910;2023-03-04T07:44:53;99510.39;;;21.53;30.31
69221;BME280;56331;51.992;20.910;2023-03-04T07:47:22;99517.11;;;21.52;30.29
69221;BME280;56331;51.992;20.910;2023-03-04T07:49:50;99517.33;;;21.53;30.37
69221;BME280;56331;51.992;20.910;2023-03-04T07:52:16;99510.98;;;21.52;30.37
69221;BME280;56331;51.992;20.910;2023-03-04T07:54:43;99509.25;;;21.54;30.32
69221;BME280;56331;51.992;20.910;2023-03-04T07:57:09;99495.95;;;21.53;30.33
69221;BME280;56331;51.992;20.910;2023-03-04T07:59:36;99499.31;;;21.53;30.30
69221;BME280;56331;51.992;20.910;2023-03-04T08:02:03;99509.02;;;21.53;30.33
69221;BME280;56331;51.992;20.910;2023-03-04T08:04:29;99501.28;;;21.52;30.35
69221;BME280;56331;51.992;20.910;2023-03-04T08:06:55;99497.92;;;21.53;30.33
69221;BME280;56331;51.992;20.910;2023-03-04T08:09:22;99496.33;;;21.52;30.34
69221;BME280;56331;51.992;20.910;2023-03-04T08:11:48;99506.03;;;21.52;30.33
69221;BME280;56331;51.992;20.910;2023-03-04T08:14:15;99507.41;;;21.52;30.44
69221;BME280;56331;51.992;20.910;2023-03-04T08:16:43;99501.28;;;21.52;30.56
69221;BME280;56331;51.992;20.910;2023-03-04T08:19:10;99498.89;;;21.51;30.53
69221;BME280;56331;51.992;20.910;2023-03-04T08:21:37;99499.10;;;21.52;30.49
69221;BME280;56331;51.992;20.910;2023-03-04T08:24:06;99507.63;;;21.53;30.44
69221;BME280;56331;51.992;20.910;2023-03-04T08:26:36;99502.08;;;21.53;30.50
69221;BME280;56331;51.992;20.910;2023-03-04T08:29:04;99495.29;;;21.50;30.44
69221;BME280;56331;51.992;20.910;2023-03-04T08:31:31;99490.58;;;21.51;30.42
69221;BME280;56331;51.992;20.910;2023-03-04T08:33:57;99500.83;;;21.50;30.64
69221;BME280;56331;51.992;20.910;2023-03-04T08:36:26;99491.72;;;21.50;31.24
69221;BME280;56331;51.992;20.910;2023-03-04T08:38:52;99491.72;;;21.50;31.67
69221;BME280;56331;51.992;20.910;2023-03-04T08:41:19;99490.92;;;21.49;31.95
69221;BME280;56331;51.992;20.910;2023-03-04T08:43:45;99483.20;;;21.49;32.20
69221;BME280;56331;51.992;20.910;2023-03-04T08:46:12;99483.20;;;21.49;32.40
69221;BME280;56331;51.992;20.910;2023-03-04T08:48:38;99483.78;;;21.48;32.67
69221;BME280;56331;51.992;20.910;2023-03-04T08:51:11;99482.95;;;21.48;32.70
69221;BME280;56331;51.992;20.910;2023-03-04T08:53:38;99482.95;;;21.48;32.68
69221;BME280;56331;51.992;20.910;2023-03-04T08:56:06;99487.11;;;21.48;32.66
69221;BME280;56331;51.992;20.910;2023-03-04T08:58:33;99485.52;;;21.47;32.67
69221;BME280;56331;51.992;20.910;2023-03-04T09:01:00;99489.67;;;21.47;32.81
69221;BME280;56331;51.992;20.910;2023-03-04T09:03:29;99478.38;;;21.46;32.80
69221;BME280;56331;51.992;20.910;2023-03-04T09:05:55;99478.38;;;21.46;32.90
69221;BME280;56331;51.992;20.910;2023-03-04T09:08:22;99478.59;;;21.47;33.12
69221;BME280;56331;51.992;20.910;2023-03-04T09:10:51;99481.36;;;21.47;33.28
69221;BME280;56331;51.992;20.910;2023-03-04T09:13:17;99476.99;;;21.46;33.14
69221;BME280;56331;51.992;20.910;2023-03-04T09:15:45;99482.53;;;21.46;33.02
69221;BME280;56331;51.992;20.910;2023-03-04T09:18:13;99478.14;;;21.45;33.60
69221;BME280;56331;51.992;20.910;2023-03-04T09:20:40;99476.41;;;21.46;33.77
69221;BME280;56331;51.992;20.910;2023-03-04T09:23:06;99466.70;;;21.46;34.15
69221;BME280;56331;51.992;20.910;2023-03-04T09:25:35;99464.73;;;21.47;34.14
69221;BME280;56331;51.992;20.910;2023-03-04T09:28:05;99463.35;;;21.47;34.01
69221;BME280;56331;51.992;20.910;2023-03-04T09:30:31;99457.80;;;21.47;33.83
69221;BME280;56331;51.992;20.910;2023-03-04T09:32:58;99455.62;;;21.46;33.73
69221;BME280;56331;51.992;20.910;2023-03-04T09:35:24;99454.23;;;21.46;33.23
69221;BME280;56331;51.992;20.910;2023-03-04T09:37:51;99446.94;;;21.48;32.89
69221;BME280;56331;51.992;20.910;2023-03-04T09:40:19;99438.63;;;21.48;32.63
69221;BME280;56331;51.992;20.910;2023-03-04T09:42:56;99438.86;;;21.49;32.43
69221;BME280;56331;51.992;20.910;2023-03-04T09:45:21;99426.98;;;21.48;32.26
69221;BME280;56331;51.992;20.910;2023-03-04T09:47:51;99434.12;;;21.49;32.08
69221;BME280;56331;51.992;20.910;2023-03-04T09:50:21;99435.50;;;21.49;31.95
69221;BME280;56331;51.992;20.910;2023-03-04T09:53:10;99429.96;;;21.49;31.86
69221;BME280;56331;51.992;20.910;2023-03-04T09:55:39;99418.29;;;21.50;31.68
69221;BME280;56331;51.992;20.910;2023-03-04T10:03:49;99408.38;;;21.49;31.25
69221;BME280;56331;51.992;20.910;2023-03-04T10:06:06;99416.11;;;21.49;31.10
69221;BME280;56331;51.992;20.910;2023-03-04T10:08:43;99402.84;;;21.49;31.04
69221;BME280;56331;51.992;20.910;2023-03-04T10:11:14;99397.06;;;21.48;30.91
69221;BME280;56331;51.992;20.910;2023-03-04T10:13:49;99398.44;;;21.48;30.87
69221;BME280;56331;51.992;20.910;2023-03-04T10:16:17;99394.88;;;21.47;30.82
69221;BME280;56331;51.992;20.910;2023-03-04T10:18:55;99395.67;;;21.48;30.83
69221;BME280;56331;51.992;20.910;2023-03-04T10:21:31;99389.33;;;21.47;30.72
69221;BME280;56331;51.992;20.910;2023-03-04T10:24:04;99382.99;;;21.47;30.55
69221;BME280;56331;51.992;20.910;2023-03-04T10:26:31;99372.84;;;21.45;30.54
69221;BME280;56331;51.992;20.910;2023-03-04T10:28:58;99370.08;;;21.45;30.45
69221;BME280;56331;51.992;20.910;2023-03-04T10:34:04;99376.66;;;21.46;30.74
69221;BME280;56331;51.992;20.910;2023-03-04T10:39:31;99373.09;;;21.46;31.42
69221;BME280;56331;51.992;20.910;2023-03-04T10:42:01;99372.84;;;21.45;31.37
69221;BME280;56331;51.992;20.910;2023-03-04T10:44:28;99367.09;;;21.44;31.92
69221;BME280;56331;51.992;20.910;2023-03-04T10:46:56;99369.07;;;21.43;32.10
69221;BME280;56331;51.992;20.910;2023-03-04T10:49:24;99358.78;;;21.44;32.31
69221;BME280;56331;51.992;20.910;2023-03-04T10:52:03;99367.69;;;21.43;32.44
69221;BME280;56331;51.992;20.910;2023-03-04T10:57:18;99354.98;;;21.42;33.05
69221;BME280;56331;51.992;20.910;2023-03-04T11:02:25;99353.83;;;21.43;33.58
69221;BME280;56331;51.992;20.910;2023-03-04T11:05:04;99350.23;;;21.43;33.62
69221;BME280;56331;51.992;20.910;2023-03-04T11:07:24;99348.64;;;21.41;33.64
69221;BME280;56331;51.992;20.910;2023-03-04T11:09:52;99349.44;;;21.42;33.75
69221;BME280;56331;51.992;20.910;2023-03-04T11:12:21;99329.45;;;21.43;33.74
69221;BME280;56331;51.992;20.910;2023-03-04T11:14:50;99343.10;;;21.41;33.81
69221;BME280;56331;51.992;20.910;2023-03-04T11:17:23;99332.22;;;21.43;33.92
69221;BME280;56331;51.992;20.910;2023-03-04T11:20:10;99330.84;;;21.43;33.92
69221;BME280;56331;51.992;20.910;2023-03-04T11:22:33;99337.20;;;21.43;33.95
69221;BME280;56331;51.992;20.910;2023-03-04T11:25:06;99335.23;;;21.44;34.20
69221;BME280;56331;51.992;20.910;2023-03-04T11:27:44;99330.28;;;21.43;34.25
69221;BME280;56331;51.992;20.910;2023-03-04T11:31:24;99338.80;;;21.44;34.42
69221;BME280;56331;51.992;20.910;2023-03-04T11:33:08;99332.47;;;21.44;34.36
69221;BME280;56331;51.992;20.910;2023-03-04T11:35:33;99331.08;;;21.44;34.22
69221;BME280;56331;51.992;20.910;2023-03-04T11:38:08;99331.29;;;21.45;34.48
69221;BME280;56331;51.992;20.910;2023-03-04T11:40:40;99320.80;;;21.44;34.60
69221;BME280;56331;51.992;20.910;2023-03-04T11:43:18;99321.59;;;21.45;34.56
69221;BME280;56331;51.992;20.910;2023-03-04T11:48:35;99313.86;;;21.44;34.53
69221;BME280;56331;51.992;20.910;2023-03-04T11:51:02;99316.84;;;21.45;34.50
69221;BME280;56331;51.992;20.910;2023-03-04T12:02:22;99314.66;;;21.45;34.96
69221;BME280;56331;51.992;20.910;2023-03-04T12:08:07;99308.19;;;21.47;34.49
69221;BME280;56331;51.992;20.910;2023-03-04T12:10:58;99308.19;;;21.47;34.27
69221;BME280;56331;51.992;20.910;2023-03-04T12:13:40;99302.84;;;21.48;34.05
69221;BME280;56331;51.992;20.910;2023-03-04T12:16:20;99299.28;;;21.47;33.86
69221;BME280;56331;51.992;20.910;2023-03-04T12:24:57;99293.15;;;21.48;33.48
69221;BME280;56331;51.992;20.910;2023-03-04T12:27:26;99293.39;;;21.49;33.34
69221;BME280;56331;51.992;20.910;2023-03-04T12:30:08;99292.00;;;21.49;33.13
69221;BME280;56331;51.992;20.910;2023-03-04T12:35:51;99289.82;;;21.48;32.94
69221;BME280;56331;51.992;20.910;2023-03-04T12:49:25;99276.52;;;21.48;33.16
69221;BME280;56331;51.992;20.910;2023-03-04T12:54:44;99273.75;;;21.48;33.19
69221;BME280;56331;51.992;20.910;2023-03-04T12:57:22;99268.80;;;21.47;33.10
69221;BME280;56331;51.992;20.910;2023-03-04T13:00:14;99269.39;;;21.47;33.06
69221;BME280;56331;51.992;20.910;2023-03-04T13:03:09;99270.19;;;21.47;32.97
69221;BME280;56331;51.992;20.910;2023-03-04T13:08:35;99271.95;;;21.46;33.36
69221;BME280;56331;51.992;20.910;2023-03-04T13:16:45;99277.64;;;21.43;33.31
69221;BME280;56331;51.992;20.910;2023-03-04T13:24:52;99288.86;;;21.40;33.17
69221;BME280;56331;51.992;20.910;2023-03-04T13:27:50;99292.20;;;21.40;33.06
69221;BME280;56331;51.992;20.910;2023-03-04T13:43:51;99281.22;;;21.37;32.99
69221;BME280;56331;51.992;20.910;2023-03-04T13:48:59;99272.39;;;21.38;32.83
69221;BME280;56331;51.992;20.910;2023-03-04T13:56:43;99280.70;;;21.38;33.33
69221;BME280;56331;51.992;20.910;2023-03-04T13:59:38;99280.11;;;21.38;33.31
69221;BME280;56331;51.992;20.910;2023-03-04T14:02:16;99291.19;;;21.38;33.29
69221;BME280;56331;51.992;20.910;2023-03-04T14:04:44;99291.78;;;21.38;33.78
69221;BME280;56331;51.992;20.910;2023-03-04T14:07:28;99277.34;;;21.38;34.52
69221;BME280;56331;51.992;20.910;2023-03-04T14:09:58;99277.34;;;21.38;34.52
69221;BME280;56331;51.992;20.910;2023-03-04T14:12:27;99271.00;;;21.38;34.45
69221;BME280;56331;51.992;20.910;2023-03-04T14:15:05;99276.75;;;21.39;34.52
69221;BME280;56331;51.992;20.910;2023-03-04T14:17:31;99272.00;;;21.39;34.79
69221;BME280;56331;51.992;20.910;2023-03-04T14:19:58;99270.62;;;21.39;34.92
69221;BME280;56331;51.992;20.910;2023-03-04T14:22:40;99276.16;;;21.39;35.01
69221;BME280;56331;51.992;20.910;2023-03-04T14:27:47;99269.83;;;21.39;35.30
69221;BME280;56331;51.992;20.910;2023-03-04T14:30:26;99274.30;;;21.37;35.47
69221;BME280;56331;51.992;20.910;2023-03-04T14:32:56;99273.18;;;21.38;35.63
69221;BME280;56331;51.992;20.910;2023-03-04T14:35:26;99270.62;;;21.39;35.19
69221;BME280;56331;51.992;20.910;2023-03-04T14:40:42;99261.72;;;21.40;34.66
69221;BME280;56331;51.992;20.910;2023-03-04T14:43:18;99270.86;;;21.40;34.44